Time;durP1;ratioP1;P1;durP2;ratioP2;P2;SDS_P1;SDS_P2;PMS_P1;PMS_P2;Temp;Humidity;BMP_temperature;BMP_pressure;BME280_temperature;BME280_humidity;BME280_pressure;Samples;Min_cycle;Max_cycle;Signal;HPM_P1;HPM_P2
2021/04/27 00:01:06;;;;;;;6.22;4.05;;;;;;;;;;5091713;28;20031;-84
2021/04/27 00:03:33;;;;;;;5.32;4.60;;;;;;;;;;5091515;28;20036;-83
2021/04/27 00:05:59;;;;;;;7.80;4.70;;;;;;;;;;5091952;28;20089;-82
2021/04/27 00:08:26;;;;;;;8.50;4.53;;;;;;;;;;5091736;28;20016;-84
2021/04/27 00:10:52;;;;;;;5.50;4.38;;;;;;;;;;5090897;28;20069;-83
2021/04/27 00:13:18;;;;;;;6.05;4.30;;;;;;;;;;5091640;28;20044;-83
2021/04/27 00:15:44;;;;;;;5.78;4.47;;;;;;;;;;5091621;28;20020;-83
2021/04/27 00:18:10;;;;;;;5.47;4.72;;;;;;;;;;5091678;28;20060;-83
2021/04/27 00:20:36;;;;;;;7.72;4.60;;;;;;;;;;5091480;28;20063;-82
2021/04/27 00:23:02;;;;;;;5.53;4.40;;;;;;;;;;5090423;28;20040;-82
2021/04/27 00:25:28;;;;;;;6.70;4.18;;;;;;;;;;5091190;28;20032;-83
2021/04/27 00:27:55;;;;;;;5.43;4.22;;;;;;;;;;5091489;28;20051;-82
2021/04/27 00:30:22;;;;;;;5.20;4.38;;;;;;;;;;5091138;28;20040;-82
2021/04/27 00:32:48;;;;;;;5.13;4.20;;;;;;;;;;5091354;28;20043;-82
2021/04/27 00:35:15;;;;;;;7.07;4.53;;;;;;;;;;5090825;28;20493;-82
2021/04/27 00:37:41;;;;;;;6.72;4.00;;;;;;;;;;5090507;28;20416;-83
2021/04/27 00:40:08;;;;;;;5.95;4.43;;;;;;;;;;5081525;28;20035;-84
2021/04/27 00:42:36;;;;;;;5.55;4.40;;;;;;;;;;5090981;28;20020;-83
2021/04/27 00:45:03;;;;;;;7.07;4.60;;;;;;;;;;5090255;28;20386;-82
2021/04/27 00:47:29;;;;;;;5.47;4.25;;;;;;;;;;5090506;28;20027;-84
2021/04/27 00:49:56;;;;;;;7.05;4.07;;;;;;;;;;5090804;28;20115;-84
2021/04/27 00:52:22;;;;;;;;;;;;;;;;;;5090706;28;20418;-84
2021/04/27 00:54:48;;;;;;;6.10;4.00;;;;;;;;;;5090560;28;20015;-84
2021/04/27 00:57:14;;;;;;;6.73;4.50;;;;;;;;;;5091083;28;20435;-83
2021/04/27 00:59:40;;;;;;;5.13;4.00;;;;;;;;;;5090208;28;20081;-84
2021/04/27 01:02:06;;;;;;;6.25;4.10;;;;;;;;;;5090158;28;20034;-84
2021/04/27 01:04:34;;;;;;;5.00;3.83;;;;;;;;;;5090480;28;20036;-83
2021/04/27 01:07:00;;;;;;;7.32;3.95;;;;;;;;;;5090929;28;20032;-83
2021/04/27 01:09:36;;;;;;;6.17;4.47;;;;;;;;;;5090656;28;20027;-83
2021/04/27 01:12:22;;;;;;;7.63;3.90;;;;;;;;;;5071403;28;20075;-83
2021/04/27 01:14:52;;;;;;;4.95;3.92;;;;;;;;;;5089662;28;20071;-83
2021/04/27 01:17:20;;;;;;;5.15;4.10;;;;;;;;;;5090314;28;20033;-84
2021/04/27 01:19:56;;;;;;;5.47;4.40;;;;;;;;;;5090211;28;20036;-84
2021/04/27 01:22:32;;;;;;;5.80;4.22;;;;;;;;;;5089973;28;20016;-84
2021/04/27 01:25:01;;;;;;;4.95;4.00;;;;;;;;;;5089897;28;20038;-82
2021/04/27 01:27:27;;;;;;;4.90;4.18;;;;;;;;;;5090384;28;20102;-85
2021/04/27 01:29:53;;;;;;;8.30;4.15;;;;;;;;;;5090292;28;20503;-84
2021/04/27 01:32:20;;;;;;;5.27;3.80;;;;;;;;;;5090015;28;20040;-83
2021/04/27 01:34:46;;;;;;;4.72;4.00;;;;;;;;;;5090148;28;20024;-83
2021/04/27 01:37:14;;;;;;;5.22;3.80;;;;;;;;;;5089665;28;20390;-83
2021/04/27 01:39:40;;;;;;;6.10;4.00;;;;;;;;;;5090060;28;20028;-83
2021/04/27 01:42:07;;;;;;;6.15;3.95;;;;;;;;;;5090361;28;20032;-83
2021/04/27 01:44:33;;;;;;;5.38;3.90;;;;;;;;;;5089680;28;20020;-83
2021/04/27 01:47:00;;;;;;;5.45;3.65;;;;;;;;;;5089777;28;20044;-84
2021/04/27 01:49:26;;;;;;;;;;;;;;;;;;5090672;28;20393;-83
2021/04/27 01:51:53;;;;;;;4.57;3.90;;;;;;;;;;5090749;28;19912;-83
2021/04/27 01:54:22;;;;;;;5.88;4.30;;;;;;;;;;5090172;28;20115;-83
2021/04/27 01:56:48;;;;;;;5.63;3.90;;;;;;;;;;5089709;28;20044;-84
2021/04/27 01:59:14;;;;;;;6.80;3.75;;;;;;;;;;5091198;28;20386;-83
2021/04/27 02:01:40;;;;;;;4.22;3.83;;;;;;;;;;5089777;28;20130;-83
2021/04/27 02:04:06;;;;;;;4.75;3.42;;;;;;;;;;5090620;28;20028;-83
2021/04/27 02:06:32;;;;;;;5.57;4.22;;;;;;;;;;5089892;28;20111;-84
2021/04/27 02:08:58;;;;;;;5.18;4.13;;;;;;;;;;5090541;28;20505;-84
2021/04/27 02:11:24;;;;;;;5.40;3.80;;;;;;;;;;5089079;28;20139;-82
2021/04/27 02:13:50;;;;;;;5.32;4.00;;;;;;;;;;5089806;28;20034;-83
2021/04/27 02:16:17;;;;;;;6.03;4.20;;;;;;;;;;5090728;28;20102;-81
2021/04/27 02:18:55;;;;;;;4.13;3.50;;;;;;;;;;5091600;28;20056;-84
2021/04/27 02:21:21;;;;;;;6.20;4.45;;;;;;;;;;5090156;28;20351;-83
2021/04/27 02:23:47;;;;;;;5.15;3.85;;;;;;;;;;5090130;28;20068;-84
2021/04/27 02:26:14;;;;;;;4.20;3.80;;;;;;;;;;5089412;28;20024;-84
2021/04/27 02:28:41;;;;;;;5.40;3.58;;;;;;;;;;5089600;28;20121;-84
2021/04/27 02:31:07;;;;;;;4.30;3.67;;;;;;;;;;5090218;28;20474;-84
2021/04/27 02:33:34;;;;;;;5.17;3.80;;;;;;;;;;5090368;28;20020;-84
2021/04/27 02:36:00;;;;;;;;;;;;;;;;;;5089678;28;20267;-82
2021/04/27 02:38:26;;;;;;;3.77;3.23;;;;;;;;;;5089887;28;19923;-84
2021/04/27 02:40:56;;;;;;;5.33;4.00;;;;;;;;;;5088985;28;20273;-84
2021/04/27 02:43:23;;;;;;;5.45;3.83;;;;;;;;;;5089984;28;20360;-85
2021/04/27 02:45:49;;;;;;;;;;;;;;;;;;5089678;28;20416;-84
2021/04/27 02:48:16;;;;;;;5.15;3.28;;;;;;;;;;5092401;28;19969;-84
2021/04/27 02:50:53;;;;;;;3.75;3.35;;;;;;;;;;5092657;28;20440;-83
2021/04/27 02:53:19;;;;;;;5.63;3.60;;;;;;;;;;5093188;28;20040;-82
2021/04/27 02:55:45;;;;;;;4.47;3.40;;;;;;;;;;5093197;28;20052;-83
2021/04/27 02:58:12;;;;;;;5.30;4.00;;;;;;;;;;5093147;28;20048;-82
2021/04/27 03:00:38;;;;;;;4.95;3.80;;;;;;;;;;5091698;28;20119;-82
2021/04/27 03:03:04;;;;;;;5.25;3.40;;;;;;;;;;5092876;28;20041;-82
2021/04/27 03:05:30;;;;;;;7.43;3.40;;;;;;;;;;5093543;28;20024;-82
2021/04/27 03:07:56;;;;;;;4.43;3.28;;;;;;;;;;5092753;28;20062;-83
2021/04/27 03:10:22;;;;;;;4.45;3.72;;;;;;;;;;5091876;28;20043;-82
2021/04/27 03:12:48;;;;;;;6.00;3.80;;;;;;;;;;5092466;28;20047;-84
2021/04/27 03:15:14;;;;;;;7.13;3.80;;;;;;;;;;5092505;28;20024;-83
2021/04/27 03:17:40;;;;;;;9.63;3.80;;;;;;;;;;5092386;28;20043;-83
2021/04/27 03:20:08;;;;;;;12.10;4.00;;;;;;;;;;5092328;28;20032;-84
2021/04/27 03:22:35;;;;;;;9.52;3.63;;;;;;;;;;5092435;28;20020;-83
2021/04/27 03:25:01;;;;;;;7.72;3.67;;;;;;;;;;5092675;28;20020;-83
2021/04/27 03:27:27;;;;;;;6.40;3.85;;;;;;;;;;5092526;28;20483;-83
2021/04/27 03:29:53;;;;;;;9.70;3.85;;;;;;;;;;5091466;28;20082;-83
2021/04/27 03:32:19;;;;;;;5.80;3.72;;;;;;;;;;5073585;28;20564;-83
2021/04/27 03:34:45;;;;;;;6.40;3.78;;;;;;;;;;5092615;28;20024;-84
2021/04/27 03:37:11;;;;;;;4.25;3.40;;;;;;;;;;5092525;28;20485;-83
2021/04/27 03:39:37;;;;;;;4.93;3.47;;;;;;;;;;5091710;28;20106;-83
2021/04/27 03:42:03;;;;;;;4.80;3.60;;;;;;;;;;5073518;28;20443;-83
2021/04/27 03:44:29;;;;;;;4.78;3.47;;;;;;;;;;5091508;28;20470;-84
2021/04/27 03:46:55;;;;;;;3.97;3.45;;;;;;;;;;5091951;28;20466;-84
2021/04/27 03:49:21;;;;;;;6.82;3.45;;;;;;;;;;5091698;28;20031;-83
2021/04/27 03:51:47;;;;;;;4.07;3.30;;;;;;;;;;5091975;28;20505;-83
2021/04/27 03:54:13;;;;;;;4.72;3.30;;;;;;;;;;5092119;28;20055;-83
2021/04/27 03:56:39;;;;;;;10.37;3.37;;;;;;;;;;5091428;28;20060;-82
2021/04/27 03:59:05;;;;;;;8.57;3.43;;;;;;;;;;5091129;28;20024;-83
2021/04/27 04:01:32;;;;;;;4.73;3.60;;;;;;;;;;5091344;28;20036;-83
2021/04/27 04:03:58;;;;;;;5.82;3.20;;;;;;;;;;5092074;28;20024;-82
2021/04/27 04:06:24;;;;;;;5.53;3.37;;;;;;;;;;5091548;28;20115;-82
2021/04/27 04:08:50;;;;;;;6.67;3.30;;;;;;;;;;5091934;28;20016;-84
2021/04/27 04:11:16;;;;;;;7.50;3.40;;;;;;;;;;5090469;28;20847;-83
2021/04/27 04:13:42;;;;;;;5.63;3.30;;;;;;;;;;5091262;28;20035;-84
2021/04/27 04:16:07;;;;;;;4.87;3.33;;;;;;;;;;5091123;28;20052;-85
2021/04/27 04:18:34;;;;;;;4.80;3.60;;;;;;;;;;5091648;28;20024;-84
2021/04/27 04:21:00;;;;;;;4.75;3.25;;;;;;;;;;5089918;28;20121;-82
2021/04/27 04:23:26;;;;;;;6.03;3.25;;;;;;;;;;5091214;28;20024;-82
2021/04/27 04:25:52;;;;;;;4.88;3.40;;;;;;;;;;5091824;28;20024;-81
2021/04/27 04:28:18;;;;;;;6.13;3.20;;;;;;;;;;5091134;28;20138;-81
2021/04/27 04:30:44;;;;;;;4.17;3.30;;;;;;;;;;5091238;28;20475;-83
2021/04/27 04:33:10;;;;;;;6.20;3.50;;;;;;;;;;5079958;28;20389;-82
2021/04/27 04:35:37;;;;;;;5.90;3.30;;;;;;;;;;5070981;28;20024;-83
2021/04/27 04:38:03;;;;;;;;;;;;;;;;;;5071058;28;20267;-82
2021/04/27 04:40:29;;;;;;;4.10;3.15;;;;;;;;;;5075810;28;19915;-79
2021/04/27 04:42:55;;;;;;;8.15;4.32;;;;;;;;;;5091317;28;20103;-83
2021/04/27 04:45:21;;;;;;;7.37;5.43;;;;;;;;;;5090765;28;20106;-82
2021/04/27 04:47:47;;;;;;;7.90;6.00;;;;;;;;;;5090659;28;20531;-82
2021/04/27 04:50:14;;;;;;;9.63;6.50;;;;;;;;;;5090793;28;20274;-82
2021/04/27 04:52:40;;;;;;;12.35;7.45;;;;;;;;;;5090535;28;20035;-81
2021/04/27 04:55:07;;;;;;;9.82;7.03;;;;;;;;;;5089197;28;20457;-82
2021/04/27 04:57:33;;;;;;;;;;;;;;;;;;5091603;28;20473;-83
2021/04/27 04:59:59;;;;;;;12.50;7.55;;;;;;;;;;5090792;28;19981;-81
2021/04/27 05:02:25;;;;;;;11.17;8.30;;;;;;;;;;5090719;28;20038;-82
2021/04/27 05:04:51;;;;;;;15.53;8.77;;;;;;;;;;5090045;28;20752;-82
2021/04/27 05:07:17;;;;;;;12.00;7.05;;;;;;;;;;5091019;28;20039;-81
2021/04/27 05:09:43;;;;;;;14.93;11.13;;;;;;;;;;5090463;28;20035;-79
2021/04/27 05:12:10;;;;;;;16.07;12.10;;;;;;;;;;5093093;28;20056;-72
2021/04/27 05:14:40;;;;;;;17.58;12.65;;;;;;;;;;5090463;28;20032;-73
2021/04/27 05:17:06;;;;;;;26.10;12.25;;;;;;;;;;5090486;28;20028;-74
2021/04/27 05:19:33;;;;;;;30.10;13.88;;;;;;;;;;5089878;28;20051;-76
2021/04/27 05:22:00;;;;;;;27.95;13.45;;;;;;;;;;5090201;28;20016;-73
2021/04/27 05:24:26;;;;;;;;;;;;;;;;;;5106572;28;20080;-74
2021/04/27 05:26:52;;;;;;;34.20;12.75;;;;;;;;;;5108380;28;19915;-73
2021/04/27 05:29:18;;;;;;;31.02;12.63;;;;;;;;;;5088323;28;20027;-74
2021/04/27 05:31:44;;;;;;;33.10;11.30;;;;;;;;;;5089989;28;20093;-76
2021/04/27 05:34:10;;;;;;;23.05;11.10;;;;;;;;;;5084656;28;20028;-75
2021/04/27 05:36:36;;;;;;;12.13;5.75;;;;;;;;;;5077045;28;20031;-75
2021/04/27 05:39:02;;;;;;;18.87;10.23;;;;;;;;;;5093311;28;20027;-77
2021/04/27 05:41:28;;;;;;;21.67;10.47;;;;;;;;;;5110940;28;20024;-76
2021/04/27 05:43:54;;;;;;;18.50;10.37;;;;;;;;;;5110933;28;20092;-75
2021/04/27 05:46:20;;;;;;;17.50;9.77;;;;;;;;;;5095302;28;20031;-74
2021/04/27 05:48:46;;;;;;;14.10;8.43;;;;;;;;;;5083328;28;20036;-75
2021/04/27 05:51:12;;;;;;;18.07;8.53;;;;;;;;;;5089735;28;20046;-76
2021/04/27 05:53:38;;;;;;;18.30;10.00;;;;;;;;;;5089696;28;20073;-74
2021/04/27 05:56:04;;;;;;;17.50;9.20;;;;;;;;;;5090393;28;20330;-76
2021/04/27 05:58:30;;;;;;;19.88;9.75;;;;;;;;;;5088200;28;20414;-76
2021/04/27 06:00:56;;;;;;;14.33;10.17;;;;;;;;;;5086991;28;20051;-78
2021/04/27 06:03:22;;;;;;;15.83;10.67;;;;;;;;;;5087658;28;20068;-75
2021/04/27 06:05:48;;;;;;;15.07;11.40;;;;;;;;;;5093722;28;20504;-76
2021/04/27 06:08:14;;;;;;;14.67;10.97;;;;;;;;;;5090161;28;20268;-77
2021/04/27 06:10:40;;;;;;;14.87;11.73;;;;;;;;;;5089956;28;20044;-75
2021/04/27 06:13:06;;;;;;;17.67;11.70;;;;;;;;;;5089606;28;20036;-76
2021/04/27 06:15:32;;;;;;;13.37;11.93;;;;;;;;;;5092188;28;20036;-78
2021/04/27 06:17:58;;;;;;;11.87;9.13;;;;;;;;;;5093660;28;20488;-76
2021/04/27 06:20:24;;;;;;;9.00;6.63;;;;;;;;;;5089343;28;20344;-77
2021/04/27 06:22:50;;;;;;;11.80;6.90;;;;;;;;;;5091687;28;20062;-78
2021/04/27 06:25:16;;;;;;;8.40;5.93;;;;;;;;;;5093433;28;20032;-75
2021/04/27 06:27:42;;;;;;;9.63;6.10;;;;;;;;;;5093827;28;20028;-76
2021/04/27 06:30:09;;;;;;;8.93;5.47;;;;;;;;;;5093477;28;20493;-78
2021/04/27 06:32:35;;;;;;;;;;;;;;;;;;5093960;28;20047;-77
2021/04/27 06:35:01;;;;;;;8.43;5.05;;;;;;;;;;5093059;28;19912;-79
2021/04/27 06:37:27;;;;;;;9.40;4.93;;;;;;;;;;5093331;28;20235;-77
2021/04/27 06:39:53;;;;;;;8.00;4.68;;;;;;;;;;5093668;28;20024;-77
2021/04/27 06:42:19;;;;;;;6.47;4.70;;;;;;;;;;5093276;28;20472;-77
2021/04/27 06:44:45;;;;;;;8.70;4.63;;;;;;;;;;5093417;28;20341;-77
2021/04/27 06:47:11;;;;;;;7.13;4.43;;;;;;;;;;5093650;28;20250;-77
2021/04/27 06:49:37;;;;;;;8.97;4.33;;;;;;;;;;5093171;28;20081;-78
2021/04/27 06:52:05;;;;;;;6.30;4.13;;;;;;;;;;5092444;28;20073;-77
2021/04/27 06:54:31;;;;;;;7.03;4.35;;;;;;;;;;5093246;28;20031;-78
2021/04/27 06:56:57;;;;;;;7.90;4.22;;;;;;;;;;5093081;28;20040;-77
2021/04/27 06:59:30;;;;;;;5.20;3.93;;;;;;;;;;5093271;28;20070;-77
2021/04/27 07:01:56;;;;;;;6.70;4.18;;;;;;;;;;5092686;28;20024;-77
2021/04/27 07:04:22;;;;;;;6.07;3.90;;;;;;;;;;5092400;28;20028;-78
2021/04/27 07:06:48;;;;;;;7.17;4.17;;;;;;;;;;5092302;28;20115;-77
2021/04/27 07:09:14;;;;;;;6.47;3.97;;;;;;;;;;5092872;28;20028;-78
2021/04/27 07:11:40;;;;;;;6.97;3.90;;;;;;;;;;5092563;28;20090;-77
2021/04/27 07:14:06;;;;;;;6.70;3.83;;;;;;;;;;5091988;28;20020;-76
2021/04/27 07:16:32;;;;;;;5.63;3.87;;;;;;;;;;5092668;28;20077;-76
2021/04/27 07:18:57;;;;;;;7.13;4.13;;;;;;;;;;5092918;28;20036;-79
2021/04/27 07:21:24;;;;;;;5.83;3.80;;;;;;;;;;5092422;28;20028;-76
2021/04/27 07:23:50;;;;;;;4.63;3.72;;;;;;;;;;5092707;28;20477;-77
2021/04/27 07:26:16;;;;;;;4.67;3.63;;;;;;;;;;5092692;28;20123;-78
2021/04/27 07:28:42;;;;;;;6.37;3.87;;;;;;;;;;5092053;28;20318;-77
2021/04/27 07:31:08;;;;;;;6.00;3.90;;;;;;;;;;5092440;28;20281;-77
2021/04/27 07:33:34;;;;;;;7.33;3.50;;;;;;;;;;5091042;28;20459;-77
2021/04/27 07:36:00;;;;;;;6.37;3.80;;;;;;;;;;5091735;28;20127;-78
2021/04/27 07:38:26;;;;;;;5.40;3.50;;;;;;;;;;5091223;28;20477;-78
2021/04/27 07:40:52;;;;;;;6.95;3.75;;;;;;;;;;5091619;28;20032;-76
2021/04/27 07:43:18;;;;;;;4.80;3.40;;;;;;;;;;5091843;28;20020;-75
2021/04/27 07:45:45;;;;;;;5.13;3.60;;;;;;;;;;5091096;28;20515;-77
2021/04/27 07:48:11;;;;;;;7.45;3.90;;;;;;;;;;5091577;28;20118;-76
2021/04/27 07:50:37;;;;;;;6.50;4.07;;;;;;;;;;5092070;28;20070;-77
2021/04/27 07:53:04;;;;;;;4.80;3.40;;;;;;;;;;5091935;28;20043;-76
2021/04/27 07:55:30;;;;;;;5.38;3.80;;;;;;;;;;5092325;28;20386;-75
2021/04/27 07:57:56;;;;;;;5.72;3.38;;;;;;;;;;5092156;28;20044;-74
2021/04/27 08:00:23;;;;;;;5.70;3.60;;;;;;;;;;5091752;28;20396;-76
2021/04/27 08:02:51;;;;;;;;;;;;;;;;;;5092468;28;20024;-76
2021/04/27 08:05:17;;;;;;;6.18;3.33;;;;;;;;;;5091906;28;19908;-75
2021/04/27 08:07:43;;;;;;;5.45;3.67;;;;;;;;;;5091930;28;20539;-77
2021/04/27 08:10:13;;;;;;;5.50;3.47;;;;;;;;;;5090444;28;20497;-76
2021/04/27 08:12:41;;;;;;;5.82;3.30;;;;;;;;;;5090599;28;20040;-76
2021/04/27 08:15:07;;;;;;;6.03;3.75;;;;;;;;;;5089776;28;20416;-75
2021/04/27 08:17:33;;;;;;;4.45;3.33;;;;;;;;;;5091328;28;20031;-75
2021/04/27 08:19:59;;;;;;;5.13;3.60;;;;;;;;;;5091906;28;20356;-74
2021/04/27 08:22:25;;;;;;;5.03;3.30;;;;;;;;;;5090765;28;20032;-74
2021/04/27 08:24:51;;;;;;;3.87;3.20;;;;;;;;;;5091531;28;20031;-76
2021/04/27 08:27:17;;;;;;;4.50;3.30;;;;;;;;;;5090561;28;20784;-77
2021/04/27 08:29:44;;;;;;;5.00;3.40;;;;;;;;;;5084101;28;20136;-73
2021/04/27 08:32:10;;;;;;;5.50;3.20;;;;;;;;;;5077821;28;20036;-74
2021/04/27 08:34:36;;;;;;;;;;;;;;;;;;5091090;28;20024;-79
2021/04/27 08:37:02;;;;;;;3.85;3.40;;;;;;;;;;5090556;28;19932;-76
2021/04/27 08:39:28;;;;;;;5.13;3.27;;;;;;;;;;5091193;28;20515;-76
2021/04/27 08:41:55;;;;;;;6.13;3.47;;;;;;;;;;5090951;28;20744;-78
2021/04/27 08:44:21;;;;;;;6.93;3.55;;;;;;;;;;5090777;28;20031;-75
2021/04/27 08:46:47;;;;;;;4.30;3.60;;;;;;;;;;5090063;28;20067;-75
2021/04/27 08:49:13;;;;;;;4.77;3.27;;;;;;;;;;5090147;28;20068;-73
2021/04/27 08:51:39;;;;;;;6.20;3.58;;;;;;;;;;5090597;28;20035;-76
2021/04/27 08:54:06;;;;;;;5.78;3.33;;;;;;;;;;5090986;28;20360;-76
2021/04/27 08:56:33;;;;;;;5.32;3.58;;;;;;;;;;5090288;28;20036;-82
2021/04/27 08:58:59;;;;;;;5.55;3.70;;;;;;;;;;5090995;28;20036;-82
2021/04/27 09:01:25;;;;;;;5.88;3.53;;;;;;;;;;5090661;28;20111;-80
2021/04/27 09:03:54;;;;;;;6.32;3.53;;;;;;;;;;5090573;28;20028;-80
2021/04/27 09:06:21;;;;;;;6.43;3.70;;;;;;;;;;5072639;28;20837;-82
2021/04/27 09:08:47;;;;;;;5.25;3.80;;;;;;;;;;5090390;28;20375;-82
2021/04/27 09:11:26;;;;;;;7.40;3.70;;;;;;;;;;5090305;28;20093;-83
2021/04/27 09:14:14;;;;;;;6.78;3.80;;;;;;;;;;5091616;28;20032;-81
2021/04/27 09:16:44;;;;;;;5.60;3.72;;;;;;;;;;5089807;28;20071;-76
2021/04/27 09:19:10;;;;;;;7.60;4.00;;;;;;;;;;5090469;28;20020;-74
2021/04/27 09:21:38;;;;;;;6.53;3.90;;;;;;;;;;5090086;28;20043;-76
2021/04/27 09:24:14;;;;;;;5.80;3.88;;;;;;;;;;5089271;28;20281;-75
2021/04/27 09:26:41;;;;;;;6.57;4.20;;;;;;;;;;5078721;28;20024;-76
2021/04/27 09:29:07;;;;;;;;;;;;;;;;;;5090890;28;20785;-77
2021/04/27 09:31:34;;;;;;;6.00;3.95;;;;;;;;;;5089516;28;20017;-76
2021/04/27 09:34:18;;;;;;;9.32;4.03;;;;;;;;;;5090491;28;20446;-76
2021/04/27 09:36:45;;;;;;;7.68;4.05;;;;;;;;;;5089019;28;20125;-73
2021/04/27 09:39:11;;;;;;;8.20;4.20;;;;;;;;;;5073291;28;20134;-79
2021/04/27 09:41:38;;;;;;;7.85;3.97;;;;;;;;;;5070233;28;20560;-77
2021/04/27 09:44:04;;;;;;;9.38;4.43;;;;;;;;;;5079806;28;20034;-78
2021/04/27 09:46:30;;;;;;;29.57;7.53;;;;;;;;;;5089453;28;20510;-76
2021/04/27 09:49:00;;;;;;;49.53;11.77;;;;;;;;;;5086838;28;20028;-75
2021/04/27 09:51:27;;;;;;;56.10;13.48;;;;;;;;;;5088758;28;20023;-74
2021/04/27 09:53:55;;;;;;;49.08;11.77;;;;;;;;;;5089972;28;20024;-74
2021/04/27 09:56:40;;;;;;;38.90;10.07;;;;;;;;;;5091628;28;20165;-75
2021/04/27 09:59:08;;;;;;;35.50;10.40;;;;;;;;;;5076663;28;20020;-75
2021/04/27 10:01:34;;;;;;;33.53;8.95;;;;;;;;;;5092672;28;20111;-75
2021/04/27 10:04:01;;;;;;;38.28;9.50;;;;;;;;;;5080623;28;20049;-75
2021/04/27 10:06:28;;;;;;;32.22;9.00;;;;;;;;;;5083011;28;20020;-74
2021/04/27 10:08:54;;;;;;;;;;;;;;;;;;5082986;28;20456;-74
2021/04/27 10:11:22;;;;;;;38.70;11.30;;;;;;;;;;5082249;28;20034;-74
2021/04/27 10:13:48;;;;;;;35.17;11.20;;;;;;;;;;5082566;28;20044;-74
2021/04/27 10:16:15;;;;;;;41.28;9.95;;;;;;;;;;5082553;28;20477;-73
2021/04/27 10:18:42;;;;;;;33.17;10.70;;;;;;;;;;5082887;28;20115;-74
2021/04/27 10:21:10;;;;;;;38.00;10.77;;;;;;;;;;5083107;28;20027;-73
2021/04/27 10:23:37;;;;;;;35.08;9.75;;;;;;;;;;5082377;28;20144;-75
2021/04/27 10:26:03;;;;;;;28.25;9.80;;;;;;;;;;5082653;28;20035;-75
2021/04/27 10:28:49;;;;;;;32.10;10.20;;;;;;;;;;5083220;28;20016;-76
2021/04/27 10:31:16;;;;;;;36.20;10.23;;;;;;;;;;5082790;28;20032;-76
2021/04/27 10:33:57;;;;;;;32.25;10.50;;;;;;;;;;5083824;28;20059;-75
2021/04/27 10:36:23;;;;;;;32.78;10.52;;;;;;;;;;5083244;28;20029;-74
2021/04/27 10:38:56;;;;;;;36.87;10.23;;;;;;;;;;5082959;28;20039;-74
2021/04/27 10:41:24;;;;;;;27.45;9.48;;;;;;;;;;5083072;28;20479;-75
2021/04/27 10:44:00;;;;;;;32.45;9.57;;;;;;;;;;5082447;28;20054;-82
2021/04/27 10:46:28;;;;;;;36.63;10.15;;;;;;;;;;5082876;28;20028;-75
2021/04/27 10:49:07;;;;;;;29.65;9.25;;;;;;;;;;5083498;28;20436;-74
2021/04/27 10:51:34;;;;;;;36.42;9.40;;;;;;;;;;5085713;28;20028;-75
2021/04/27 10:54:06;;;;;;;29.15;8.98;;;;;;;;;;5093476;28;20429;-77
2021/04/27 10:56:37;;;;;;;24.65;9.68;;;;;;;;;;5092903;28;20111;-74
2021/04/27 10:59:07;;;;;;;28.83;9.38;;;;;;;;;;5093425;28;20024;-76
2021/04/27 11:01:33;;;;;;;28.67;9.27;;;;;;;;;;5093163;28;20382;-76
2021/04/27 11:04:00;;;;;;;24.80;9.55;;;;;;;;;;5093282;28;20024;-76
2021/04/27 11:06:26;;;;;;;;;;;;;;;;;;5093707;28;20032;-76
2021/04/27 11:08:55;;;;;;;27.83;9.15;;;;;;;;;;5091381;28;19961;-76
2021/04/27 11:11:27;;;;;;;26.75;8.85;;;;;;;;;;5092817;28;20071;-76
2021/04/27 11:13:55;;;;;;;25.98;9.15;;;;;;;;;;5093083;28;20036;-76
2021/04/27 11:16:28;;;;;;;26.83;8.57;;;;;;;;;;5092429;28;20032;-76
2021/04/27 11:19:14;;;;;;;24.55;8.35;;;;;;;;;;5092475;28;20110;-74
2021/04/27 11:21:41;;;;;;;24.15;8.90;;;;;;;;;;5081873;28;20044;-73
2021/04/27 11:24:08;;;;;;;20.48;8.40;;;;;;;;;;5092952;28;20099;-74
2021/04/27 11:26:34;;;;;;;25.02;9.05;;;;;;;;;;5092869;28;20039;-74
2021/04/27 11:29:01;;;;;;;27.20;8.88;;;;;;;;;;5092829;28;20022;-74
2021/04/27 11:31:27;;;;;;;;;;;;;;;;;;5092311;28;20316;-75
2021/04/27 11:34:00;;;;;;;20.52;8.43;;;;;;;;;;5092798;28;20056;-75
2021/04/27 11:36:39;;;;;;;20.90;8.07;;;;;;;;;;5092579;28;20104;-75
2021/04/27 11:39:12;;;;;;;21.40;8.52;;;;;;;;;;5092247;28;20430;-77
2021/04/27 11:41:53;;;;;;;21.35;8.27;;;;;;;;;;5092028;28;20020;-74
2021/04/27 11:44:20;;;;;;;21.23;8.63;;;;;;;;;;5092602;28;20096;-76
2021/04/27 11:46:55;;;;;;;19.65;8.02;;;;;;;;;;5092056;28;20032;-75
2021/04/27 11:49:22;;;;;;;17.92;7.47;;;;;;;;;;5092132;28;20028;-75
2021/04/27 11:51:48;;;;;;;20.70;8.00;;;;;;;;;;5092317;28;20024;-76
2021/04/27 11:54:14;;;;;;;18.70;8.33;;;;;;;;;;5092325;28;20028;-76
2021/04/27 11:56:47;;;;;;;21.87;8.50;;;;;;;;;;5092254;28;20354;-76
2021/04/27 11:59:13;;;;;;;17.35;7.60;;;;;;;;;;5092198;28;20190;-76
2021/04/27 12:01:39;;;;;;;22.00;8.67;;;;;;;;;;5091870;28;20069;-76
2021/04/27 12:04:05;;;;;;;18.13;7.70;;;;;;;;;;5092110;28;20390;-76
2021/04/27 12:06:32;;;;;;;24.60;7.90;;;;;;;;;;5091796;28;20024;-75
2021/04/27 12:09:01;;;;;;;17.42;7.57;;;;;;;;;;5073152;28;20036;-77
2021/04/27 12:11:32;;;;;;;18.83;8.48;;;;;;;;;;5091662;28;20040;-75
2021/04/27 12:13:58;;;;;;;16.95;7.45;;;;;;;;;;5092142;28;20103;-78
2021/04/27 12:16:25;;;;;;;18.03;8.03;;;;;;;;;;5073118;28;20154;-75
2021/04/27 12:18:53;;;;;;;19.73;7.60;;;;;;;;;;5091380;28;20053;-76
2021/04/27 12:21:27;;;;;;;19.42;7.60;;;;;;;;;;5091395;28;20032;-76
2021/04/27 12:24:06;;;;;;;15.70;7.50;;;;;;;;;;5091673;28;20153;-76
2021/04/27 12:26:32;;;;;;;18.00;7.53;;;;;;;;;;5091857;28;20031;-75
2021/04/27 12:28:58;;;;;;;15.95;7.55;;;;;;;;;;5091389;28;20043;-75
2021/04/27 12:31:25;;;;;;;16.55;7.40;;;;;;;;;;5090680;28;20359;-77
2021/04/27 12:33:55;;;;;;;16.63;7.47;;;;;;;;;;5091467;28;20028;-75
2021/04/27 12:36:31;;;;;;;20.15;7.45;;;;;;;;;;5090643;28;20032;-73
2021/04/27 12:38:57;;;;;;;18.63;6.78;;;;;;;;;;5090918;28;20036;-76
2021/04/27 12:41:42;;;;;;;15.60;6.77;;;;;;;;;;5090401;28;20028;-77
2021/04/27 12:44:26;;;;;;;18.85;7.47;;;;;;;;;;5090625;28;20338;-77
2021/04/27 12:46:53;;;;;;;19.58;7.72;;;;;;;;;;5079559;28;20431;-77
2021/04/27 12:49:29;;;;;;;12.70;6.78;;;;;;;;;;5090601;28;20537;-77
2021/04/27 12:52:01;;;;;;;16.73;7.05;;;;;;;;;;5090643;28;20020;-78
2021/04/27 12:54:28;;;;;;;16.33;7.35;;;;;;;;;;5082471;28;20032;-76
2021/04/27 12:57:04;;;;;;;16.20;7.53;;;;;;;;;;5090867;28;20456;-76
2021/04/27 12:59:30;;;;;;;18.52;7.13;;;;;;;;;;5081539;28;20445;-75
2021/04/27 13:01:59;;;;;;;18.50;7.30;;;;;;;;;;5091143;28;20112;-77
2021/04/27 13:04:29;;;;;;;14.88;7.00;;;;;;;;;;5091227;28;20039;-77
2021/04/27 13:06:55;;;;;;;17.17;7.20;;;;;;;;;;5090930;28;20059;-77
2021/04/27 13:09:26;;;;;;;14.63;6.87;;;;;;;;;;5094611;28;20059;-76
2021/04/27 13:12:02;;;;;;;15.70;7.22;;;;;;;;;;5097724;28;20048;-76
2021/04/27 13:14:33;;;;;;;17.95;7.63;;;;;;;;;;5090886;28;20543;-75
2021/04/27 13:17:00;;;;;;;16.67;7.18;;;;;;;;;;5090829;28;20367;-76
2021/04/27 13:19:26;;;;;;;;;;;;;;;;;;5090962;28;20032;-75
2021/04/27 13:21:52;;;;;;;;;;;;;;;;;;5086283;28;19987;-77
2021/04/27 13:24:18;;;;;;;14.05;7.10;;;;;;;;;;5073616;28;19993;-77
2021/04/27 13:26:44;;;;;;;17.37;6.77;;;;;;;;;;5074419;28;20035;-75
2021/04/27 13:29:22;;;;;;;12.47;6.90;;;;;;;;;;5090181;28;20266;-76
2021/04/27 13:31:48;;;;;;;13.00;6.32;;;;;;;;;;5089498;28;20036;-77
2021/04/27 13:34:22;;;;;;;15.20;6.43;;;;;;;;;;5090674;28;20106;-78
2021/04/27 13:36:48;;;;;;;13.40;6.35;;;;;;;;;;5081819;28;20099;-77
2021/04/27 13:39:14;;;;;;;14.63;7.27;;;;;;;;;;5090549;28;20119;-76
2021/04/27 13:41:40;;;;;;;13.77;6.17;;;;;;;;;;5090360;28;20048;-77
2021/04/27 13:44:06;;;;;;;13.52;6.78;;;;;;;;;;5090594;28;20042;-75
2021/04/27 13:46:32;;;;;;;13.07;5.87;;;;;;;;;;5090224;28;20024;-75
2021/04/27 13:48:58;;;;;;;13.00;6.30;;;;;;;;;;5089703;28;20516;-76
2021/04/27 13:51:24;;;;;;;16.20;6.70;;;;;;;;;;5089960;28;20047;-77
2021/04/27 13:53:50;;;;;;;11.10;5.87;;;;;;;;;;5090714;28;20036;-75
2021/04/27 13:56:16;;;;;;;12.30;6.63;;;;;;;;;;5090496;28;20047;-75
2021/04/27 13:58:42;;;;;;;13.35;6.55;;;;;;;;;;5071723;28;20451;-75
2021/04/27 14:01:08;;;;;;;12.38;6.57;;;;;;;;;;5088319;28;20032;-78
2021/04/27 14:03:35;;;;;;;13.03;6.60;;;;;;;;;;5090432;28;20039;-76
2021/04/27 14:06:01;;;;;;;14.80;6.70;;;;;;;;;;5090137;28;20111;-76
2021/04/27 14:08:26;;;;;;;11.55;6.13;;;;;;;;;;5090176;28;20450;-78
2021/04/27 14:10:53;;;;;;;14.57;5.93;;;;;;;;;;5089018;28;20044;-80
2021/04/27 14:13:19;;;;;;;12.80;5.85;;;;;;;;;;5090184;28;20046;-80
2021/04/27 14:15:46;;;;;;;13.15;6.05;;;;;;;;;;5090280;28;20048;-79
2021/04/27 14:18:13;;;;;;;11.77;6.00;;;;;;;;;;5089862;28;20055;-78
2021/04/27 14:20:40;;;;;;;11.20;6.28;;;;;;;;;;5089969;28;20028;-76
2021/04/27 14:23:06;;;;;;;;;;;;;;;;;;5089879;28;20480;-76
2021/04/27 14:25:32;;;;;;;11.15;5.88;;;;;;;;;;5089738;28;19962;-74
2021/04/27 14:27:58;;;;;;;11.90;5.85;;;;;;;;;;5090290;28;20111;-76
2021/04/27 14:30:24;;;;;;;9.90;6.27;;;;;;;;;;5089768;28;20104;-77
2021/04/27 14:32:51;;;;;;;9.60;5.40;;;;;;;;;;5088909;28;20529;-76
2021/04/27 14:35:18;;;;;;;11.68;5.80;;;;;;;;;;5090000;28;20078;-77
2021/04/27 14:37:44;;;;;;;;;;;;;;;;;;5090572;28;20024;-75
2021/04/27 14:40:11;;;;;;;10.82;5.55;;;;;;;;;;5089213;28;19961;-77
2021/04/27 14:42:37;;;;;;;12.30;6.18;;;;;;;;;;5090726;28;20122;-75